Terminal Aerodrome Forecast
Issued by NWS

Home | Current Version | Previous Version | Text Only | Print | Product List | Glossary Off
Versions: 1 2 3 4 5 6 7 8 9 10 11 12 13 14 15 16 17 18 19 20 21 22 23

000
FTUS43 KMPX 042103 AAA
TAFAXN
TAF AMD
KAXN 042103Z 0421/0518 18010KT 6SM HZ SCT050
     FM050000 17009KT P6SM FEW250
     FM051300 18011KT P6SM SCT100 SCT250=

USA.gov is the U.S. government's official web portal to all federal, state and local government web resources and services.